Time;durP1;ratioP1;P1;durP2;ratioP2;P2;SDS_P1;SDS_P2;PMS_P1;PMS_P2;Temp;Humidity;BMP_temperature;BMP_pressure;BME280_temperature;BME280_humidity;BME280_pressure;Samples;Min_cycle;Max_cycle;Signal;HPM_P1;HPM_P2
2023/10/02 00:00:42;;;;;;;13.18;6.43;;;;;;;;;;5032092;28;20380;-73
2023/10/02 00:03:09;;;;;;;20.92;6.30;;;;;;;;;;5032102;28;20074;-73
2023/10/02 00:05:50;;;;;;;13.82;5.35;;;;;;;;;;5032356;28;20072;-73
2023/10/02 00:09:20;;;;;;;13.68;6.50;;;;;;;;;;5032496;28;20025;-73
2023/10/02 00:14:18;;;;;;;14.63;6.95;;;;;;;;;;5033847;28;19958;-73
2023/10/02 00:16:42;;;;;;;21.52;7.18;;;;;;;;;;5032213;28;20029;-73
2023/10/02 00:19:22;;;;;;;18.42;6.88;;;;;;;;;;5033457;28;20028;-73
2023/10/02 00:21:49;;;;;;;12.68;5.80;;;;;;;;;;5033407;28;20479;-73
2023/10/02 00:24:14;;;;;;;16.27;5.88;;;;;;;;;;5032173;28;20061;-72
2023/10/02 00:26:40;;;;;;;14.23;6.07;;;;;;;;;;5031422;28;20065;-72
2023/10/02 00:29:09;;;;;;;11.68;5.15;;;;;;;;;;5033438;28;20053;-73
2023/10/02 00:31:36;;;;;;;12.82;6.00;;;;;;;;;;5033408;28;20014;-72
2023/10/02 00:34:02;;;;;;;14.05;5.70;;;;;;;;;;5033582;28;20021;-72
2023/10/02 00:36:29;;;;;;;12.77;5.68;;;;;;;;;;5033073;28;20025;-73
2023/10/02 00:39:24;;;;;;;12.93;5.22;;;;;;;;;;5033150;28;20021;-73
2023/10/02 00:42:09;;;;;;;10.60;4.22;;;;;;;;;;5032801;28;20092;-72
2023/10/02 00:44:51;;;;;;;10.35;4.05;;;;;;;;;;5031950;28;20034;-72
2023/10/02 00:47:13;;;;;;;9.27;3.92;;;;;;;;;;5033016;28;20091;-72
2023/10/02 00:49:39;;;;;;;9.80;4.00;;;;;;;;;;5031847;28;20029;-72
2023/10/02 00:52:04;;;;;;;7.18;3.28;;;;;;;;;;5033275;28;20479;-73
2023/10/02 00:54:29;;;;;;;8.45;4.03;;;;;;;;;;5031875;28;20022;-72
2023/10/02 00:56:55;;;;;;;9.27;4.05;;;;;;;;;;5033003;28;20036;-72
2023/10/02 00:59:23;;;;;;;8.73;4.25;;;;;;;;;;5033476;28;20043;-72
2023/10/02 01:02:35;;;;;;;17.35;4.25;;;;;;;;;;5031385;28;20480;-73
2023/10/02 01:05:00;;;;;;;9.38;5.13;;;;;;;;;;5033396;28;20040;-73
2023/10/02 01:07:28;;;;;;;11.27;4.18;;;;;;;;;;5031979;28;20041;-73
2023/10/02 01:10:09;;;;;;;8.43;4.03;;;;;;;;;;5033365;28;20400;-73
2023/10/02 01:12:44;;;;;;;11.02;4.00;;;;;;;;;;5032533;28;20100;-73
2023/10/02 01:15:12;;;;;;;16.02;4.40;;;;;;;;;;5032950;28;20026;-73
2023/10/02 01:17:45;;;;;;;8.68;4.72;;;;;;;;;;5032050;28;20036;-73
2023/10/02 01:20:19;;;;;;;14.82;5.55;;;;;;;;;;5033196;28;20105;-72
2023/10/02 01:22:45;;;;;;;14.18;5.72;;;;;;;;;;5037056;28;20029;-73
2023/10/02 01:25:14;;;;;;;13.07;4.50;;;;;;;;;;5036507;28;20383;-72
2023/10/02 01:27:40;;;;;;;12.27;5.20;;;;;;;;;;5036833;28;20395;-73
2023/10/02 01:30:16;;;;;;;17.65;6.40;;;;;;;;;;5036046;28;20100;-72
2023/10/02 01:33:06;;;;;;;14.25;6.35;;;;;;;;;;5036977;28;20021;-73
2023/10/02 01:35:33;;;;;;;16.67;6.80;;;;;;;;;;5035327;28;20144;-72
2023/10/02 01:37:58;;;;;;;13.63;6.07;;;;;;;;;;5035405;28;20502;-72
2023/10/02 01:40:33;;;;;;;15.43;7.07;;;;;;;;;;5036428;28;20033;-72
2023/10/02 01:43:11;;;;;;;14.80;6.97;;;;;;;;;;5036744;28;20033;-72
2023/10/02 01:45:42;;;;;;;17.33;5.95;;;;;;;;;;5036722;28;20360;-72
2023/10/02 01:48:13;;;;;;;16.30;7.13;;;;;;;;;;5034763;28;20021;-72
2023/10/02 01:50:38;;;;;;;;;;;;;;;;;;5036770;28;20096;-72
2023/10/02 01:53:07;;;;;;;13.57;6.35;;;;;;;;;;5036295;28;19948;-72
2023/10/02 01:55:35;;;;;;;16.30;6.03;;;;;;;;;;5035076;28;20080;-72
2023/10/02 01:58:19;;;;;;;15.30;6.32;;;;;;;;;;5036388;28;20075;-72
2023/10/02 02:00:47;;;;;;;18.38;6.93;;;;;;;;;;5036153;28;20036;-72
2023/10/02 02:03:15;;;;;;;15.75;6.72;;;;;;;;;;5035658;28;20091;-73
2023/10/02 02:05:44;;;;;;;12.70;6.13;;;;;;;;;;5035985;28;20025;-72
2023/10/02 02:08:21;;;;;;;11.50;5.97;;;;;;;;;;5091743;22;20052;-70
2023/10/02 02:10:48;;;;;;;16.00;6.50;;;;;;;;;;5054433;28;20017;-70
2023/10/02 02:13:14;;;;;;;16.48;7.05;;;;;;;;;;5053627;28;20021;-70
2023/10/02 02:15:45;;;;;;;13.65;5.85;;;;;;;;;;5054196;28;20025;-69
2023/10/02 02:18:10;;;;;;;13.48;6.35;;;;;;;;;;5055210;28;20540;-69
2023/10/02 02:20:57;;;;;;;17.98;7.13;;;;;;;;;;5053801;28;20029;-70
2023/10/02 02:23:27;;;;;;;14.38;7.45;;;;;;;;;;5055180;28;20025;-69
2023/10/02 02:25:52;;;;;;;12.23;6.68;;;;;;;;;;5055619;28;20021;-69
2023/10/02 02:28:18;;;;;;;19.77;7.68;;;;;;;;;;5053369;28;20024;-70
2023/10/02 02:30:43;;;;;;;26.85;7.78;;;;;;;;;;5055062;28;20025;-69
2023/10/02 02:33:09;;;;;;;23.85;7.35;;;;;;;;;;5053135;28;20024;-70
2023/10/02 02:35:39;;;;;;;15.00;6.10;;;;;;;;;;5066364;28;20086;-70
2023/10/02 02:38:13;;;;;;;12.48;5.90;;;;;;;;;;5055114;28;20125;-70
2023/10/02 02:40:42;;;;;;;14.45;6.30;;;;;;;;;;5054090;28;20020;-70
2023/10/02 02:43:19;;;;;;;16.73;5.78;;;;;;;;;;5054449;28;20028;-70
2023/10/02 02:45:45;;;;;;;12.52;5.03;;;;;;;;;;5054808;28;20151;-69
2023/10/02 02:48:10;;;;;;;18.48;7.22;;;;;;;;;;5054691;28;20055;-69
2023/10/02 02:50:37;;;;;;;11.30;5.28;;;;;;;;;;5052402;28;20028;-70
2023/10/02 02:53:23;;;;;;;11.65;5.57;;;;;;;;;;5053400;28;20024;-70
2023/10/02 02:56:16;;;;;;;17.30;5.57;;;;;;;;;;5056483;28;20021;-70
2023/10/02 02:58:45;;;;;;;12.35;5.30;;;;;;;;;;5052921;28;20021;-70
2023/10/02 03:01:24;;;;;;;15.38;7.07;;;;;;;;;;5053853;28;20105;-70
2023/10/02 03:03:55;;;;;;;14.60;6.60;;;;;;;;;;5050018;28;20144;-70
2023/10/02 03:06:24;;;;;;;15.02;6.22;;;;;;;;;;5032682;28;20474;-70
2023/10/02 03:08:53;;;;;;;13.73;6.78;;;;;;;;;;5032529;28;20053;-70
2023/10/02 03:11:19;;;;;;;12.10;6.95;;;;;;;;;;5045603;28;20013;-70
2023/10/02 03:13:45;;;;;;;20.98;7.70;;;;;;;;;;5054020;28;20028;-70
2023/10/02 03:16:12;;;;;;;13.88;7.57;;;;;;;;;;5052440;28;20032;-70
2023/10/02 03:18:43;;;;;;;17.50;7.35;;;;;;;;;;5052071;28;20032;-70
2023/10/02 03:21:14;;;;;;;19.10;7.55;;;;;;;;;;5052546;28;20060;-70
2023/10/02 03:23:43;;;;;;;17.83;6.95;;;;;;;;;;5052625;28;20031;-70
2023/10/02 03:26:37;;;;;;;12.15;7.20;;;;;;;;;;5053505;28;20033;-70
2023/10/02 03:29:04;;;;;;;14.02;6.38;;;;;;;;;;5052667;28;20025;-70
2023/10/02 03:31:36;;;;;;;18.77;7.45;;;;;;;;;;5034966;28;20024;-70
2023/10/02 03:34:24;;;;;;;15.65;7.63;;;;;;;;;;5052578;28;20107;-70
2023/10/02 03:36:47;;;;;;;20.27;9.05;;;;;;;;;;5056204;28;20033;-70
2023/10/02 03:39:23;;;;;;;24.50;9.23;;;;;;;;;;5073434;28;20386;-70
2023/10/02 03:41:55;;;;;;;19.85;8.55;;;;;;;;;;5070453;28;20032;-70
2023/10/02 03:44:22;;;;;;;26.77;8.88;;;;;;;;;;5054186;28;20390;-70
2023/10/02 03:46:48;;;;;;;23.10;8.02;;;;;;;;;;5051551;28;20402;-70
2023/10/02 03:49:15;;;;;;;27.70;10.73;;;;;;;;;;5056474;28;20104;-70
2023/10/02 03:51:40;;;;;;;30.15;12.57;;;;;;;;;;5054480;28;20033;-70
2023/10/02 03:54:17;;;;;;;38.42;12.73;;;;;;;;;;5058231;28;20503;-70
2023/10/02 03:56:50;;;;;;;38.30;13.15;;;;;;;;;;5052229;28;20017;-70
2023/10/02 03:59:26;;;;;;;34.30;13.30;;;;;;;;;;5052835;28;20020;-70
2023/10/02 04:02:24;;;;;;;35.15;14.60;;;;;;;;;;5052958;28;20075;-70
2023/10/02 04:04:44;;;;;;;48.67;15.93;;;;;;;;;;5051915;28;20035;-70
2023/10/02 04:07:11;;;;;;;40.30;17.08;;;;;;;;;;5052318;28;20116;-70
2023/10/02 04:09:36;;;;;;;44.58;17.88;;;;;;;;;;5052297;28;20029;-70
2023/10/02 04:12:04;;;;;;;47.35;16.63;;;;;;;;;;5051828;28;20021;-70
2023/10/02 04:14:32;;;;;;;45.65;17.77;;;;;;;;;;5052162;28;20029;-70
2023/10/02 04:17:41;;;;;;;52.42;17.83;;;;;;;;;;5051430;28;20032;-70
2023/10/02 04:20:05;;;;;;;53.20;19.50;;;;;;;;;;5049812;28;20072;-70
2023/10/02 04:22:31;;;;;;;49.10;18.33;;;;;;;;;;5052384;28;20029;-70
2023/10/02 04:25:03;;;;;;;50.05;19.58;;;;;;;;;;5053058;28;20108;-70
2023/10/02 04:32:49;;;;;;;42.75;19.60;;;;;;;;;;5050274;28;20116;-70
2023/10/02 04:37:59;;;;;;;54.13;17.20;;;;;;;;;;5052650;28;20032;-70
2023/10/02 04:40:37;;;;;;;43.60;17.25;;;;;;;;;;5052932;28;20021;-70
2023/10/02 04:43:23;;;;;;;52.88;20.50;;;;;;;;;;5051717;28;20087;-70
2023/10/02 04:46:16;;;;;;;48.25;17.50;;;;;;;;;;5052599;28;20534;-70
2023/10/02 04:48:45;;;;;;;46.40;19.25;;;;;;;;;;5050704;28;20037;-70
2023/10/02 04:51:12;;;;;;;49.28;16.83;;;;;;;;;;5052334;28;20035;-70
2023/10/02 04:53:39;;;;;;;52.15;17.98;;;;;;;;;;5052754;28;20437;-70
2023/10/02 04:56:15;;;;;;;51.28;20.88;;;;;;;;;;5053718;28;20017;-70
2023/10/02 04:58:50;;;;;;;58.30;22.02;;;;;;;;;;5056472;28;20027;-70
2023/10/02 05:01:29;;;;;;;56.75;18.30;;;;;;;;;;5035796;28;20084;-70
2023/10/02 05:04:07;;;;;;;48.88;18.50;;;;;;;;;;5057714;28;20124;-70
2023/10/02 05:06:44;;;;;;;56.95;19.25;;;;;;;;;;5056342;28;20024;-70
2023/10/02 05:09:25;;;;;;;48.55;19.02;;;;;;;;;;5058053;28;20040;-70
2023/10/02 05:12:04;;;;;;;54.63;19.58;;;;;;;;;;5056072;28;20021;-70
2023/10/02 05:14:32;;;;;;;53.05;17.50;;;;;;;;;;5059890;28;20020;-70
2023/10/02 05:20:01;;;;;;;58.22;20.70;;;;;;;;;;5071120;28;20079;-70
2023/10/02 05:22:28;;;;;;;56.08;18.23;;;;;;;;;;5055913;28;20036;-70
2023/10/02 05:24:59;;;;;;;56.83;19.02;;;;;;;;;;5054777;28;20475;-70
2023/10/02 05:27:31;;;;;;;51.00;17.17;;;;;;;;;;5055374;28;20032;-70
2023/10/02 05:29:58;;;;;;;55.78;17.67;;;;;;;;;;5054773;28;20429;-70
2023/10/02 05:32:25;;;;;;;48.22;19.73;;;;;;;;;;5054764;28;20021;-70
2023/10/02 05:35:45;;;;;;;50.58;18.63;;;;;;;;;;5054071;28;20399;-70
2023/10/02 05:37:42;;;;;;;48.58;19.02;;;;;;;;;;5048547;28;20049;-69
2023/10/02 05:42:53;;;;;;;47.67;17.98;;;;;;;;;;5055550;28;20112;-70
2023/10/02 05:45:47;;;;;;;50.70;18.85;;;;;;;;;;5056804;28;20029;-70
2023/10/02 05:50:52;;;;;;;61.95;21.05;;;;;;;;;;5054158;28;20091;-70
2023/10/02 05:53:19;;;;;;;46.65;18.42;;;;;;;;;;5054118;28;20025;-70
2023/10/02 05:55:57;;;;;;;51.10;20.25;;;;;;;;;;5053309;28;20032;-70
2023/10/02 05:58:31;;;;;;;55.33;20.80;;;;;;;;;;5053743;28;20033;-70
2023/10/02 06:01:03;;;;;;;43.38;18.23;;;;;;;;;;5053653;28;20036;-70
2023/10/02 06:03:35;;;;;;;50.80;19.63;;;;;;;;;;5053722;28;20495;-70
2023/10/02 06:06:23;;;;;;;56.50;21.60;;;;;;;;;;5053252;28;20087;-70
2023/10/02 06:09:03;;;;;;;49.78;18.88;;;;;;;;;;5053824;28;20574;-70
2023/10/02 06:11:33;;;;;;;46.40;17.65;;;;;;;;;;5054949;28;20403;-70
2023/10/02 06:14:13;;;;;;;52.35;21.05;;;;;;;;;;5053719;28;20052;-70
2023/10/02 06:16:45;;;;;;;50.75;18.77;;;;;;;;;;5053903;28;20091;-70
2023/10/02 06:19:14;;;;;;;49.90;19.23;;;;;;;;;;5053399;28;20501;-70
2023/10/02 06:22:00;;;;;;;51.17;20.98;;;;;;;;;;5053024;28;20075;-70
2023/10/02 06:24:29;;;;;;;50.42;19.27;;;;;;;;;;5054613;28;20031;-69
2023/10/02 06:26:58;;;;;;;60.35;22.90;;;;;;;;;;5053289;28;20028;-70
2023/10/02 06:29:37;;;;;;;54.13;19.15;;;;;;;;;;5053603;28;20031;-70
2023/10/02 06:32:07;;;;;;;44.65;18.35;;;;;;;;;;5055237;28;20021;-69
2023/10/02 06:34:39;;;;;;;49.63;18.40;;;;;;;;;;5055696;28;20025;-70
2023/10/02 06:37:11;;;;;;;54.80;20.77;;;;;;;;;;5052427;28;20021;-69
2023/10/02 06:39:38;;;;;;;49.15;18.52;;;;;;;;;;5053977;28;20095;-70
2023/10/02 06:42:04;;;;;;;54.10;20.05;;;;;;;;;;5071985;28;20020;-70
2023/10/02 06:44:52;;;;;;;45.63;20.10;;;;;;;;;;5073076;28;20085;-69
2023/10/02 06:47:18;;;;;;;50.67;19.65;;;;;;;;;;5053517;28;20478;-70
2023/10/02 06:49:44;;;;;;;43.20;17.75;;;;;;;;;;5052816;28;20044;-70
2023/10/02 06:52:15;;;;;;;49.63;17.65;;;;;;;;;;5052455;28;20442;-70
2023/10/02 06:54:45;;;;;;;45.83;17.83;;;;;;;;;;5052650;28;20024;-70
2023/10/02 06:57:15;;;;;;;45.35;16.35;;;;;;;;;;5052804;28;20021;-69
2023/10/02 06:59:41;;;;;;;42.88;17.23;;;;;;;;;;5054386;28;20021;-69
2023/10/02 07:02:09;;;;;;;41.05;16.55;;;;;;;;;;5052005;28;20037;-69
2023/10/02 07:04:35;;;;;;;44.53;15.70;;;;;;;;;;5050609;28;20039;-69
2023/10/02 07:07:07;;;;;;;45.75;18.50;;;;;;;;;;5073612;28;20044;-70
2023/10/02 07:09:36;;;;;;;46.50;16.50;;;;;;;;;;5073850;28;20025;-70
2023/10/02 07:12:14;;;;;;;44.92;17.77;;;;;;;;;;5048821;28;20100;-69
2023/10/02 07:14:42;;;;;;;48.53;15.68;;;;;;;;;;5032515;28;20021;-69
2023/10/02 07:17:17;;;;;;;45.42;16.10;;;;;;;;;;5046468;28;20483;-69
2023/10/02 07:19:50;;;;;;;45.70;17.00;;;;;;;;;;5051974;28;20047;-69
2023/10/02 07:22:23;;;;;;;40.20;14.88;;;;;;;;;;5032591;28;20033;-69
2023/10/02 07:24:52;;;;;;;42.75;16.40;;;;;;;;;;5032335;28;20026;-69
2023/10/02 07:27:25;;;;;;;39.88;15.50;;;;;;;;;;5032023;28;20498;-69
2023/10/02 07:29:52;;;;;;;41.35;15.70;;;;;;;;;;5043668;28;20029;-69
2023/10/02 07:32:18;;;;;;;47.15;15.18;;;;;;;;;;5052996;28;20012;-69
2023/10/02 07:34:48;;;;;;;40.00;15.50;;;;;;;;;;5035497;28;20048;-68
2023/10/02 07:37:16;;;;;;;46.22;15.50;;;;;;;;;;5053567;28;20033;-69
2023/10/02 07:39:42;;;;;;;42.97;16.73;;;;;;;;;;5031297;28;20036;-69
2023/10/02 07:42:10;;;;;;;46.47;17.02;;;;;;;;;;5046001;28;20029;-69
2023/10/02 07:44:39;;;;;;;40.88;14.85;;;;;;;;;;5053870;28;20051;-69
2023/10/02 07:47:10;;;;;;;39.63;16.35;;;;;;;;;;5035274;28;20025;-69
2023/10/02 07:49:38;;;;;;;38.83;16.15;;;;;;;;;;5044359;28;20025;-69
2023/10/02 07:52:06;;;;;;;52.25;20.30;;;;;;;;;;5038999;28;20028;-68
2023/10/02 07:54:44;;;;;;;43.35;16.63;;;;;;;;;;5051868;28;20029;-69
2023/10/02 07:57:12;;;;;;;42.13;16.63;;;;;;;;;;5052900;28;20078;-69
2023/10/02 07:59:38;;;;;;;37.13;15.00;;;;;;;;;;5053694;28;20560;-68
2023/10/02 08:02:21;;;;;;;40.58;14.90;;;;;;;;;;5052658;28;20025;-68
2023/10/02 08:04:47;;;;;;;35.80;15.35;;;;;;;;;;5051640;28;20029;-68
2023/10/02 08:07:12;;;;;;;40.08;16.45;;;;;;;;;;5052292;28;20037;-69
2023/10/02 08:09:39;;;;;;;32.28;13.05;;;;;;;;;;5048479;23;20057;-69
2023/10/02 08:12:08;;;;;;;38.25;17.15;;;;;;;;;;5032722;28;20018;-69
2023/10/02 08:14:42;;;;;;;33.40;14.80;;;;;;;;;;5030808;28;20029;-69
2023/10/02 08:17:21;;;;;;;42.20;16.83;;;;;;;;;;5032738;28;20033;-69
2023/10/02 08:19:58;;;;;;;36.30;15.25;;;;;;;;;;5065183;28;20036;-69
2023/10/02 08:22:24;;;;;;;37.25;14.32;;;;;;;;;;5052544;28;20020;-69
2023/10/02 08:24:52;;;;;;;39.40;14.57;;;;;;;;;;5050738;28;20063;-69
2023/10/02 08:27:17;;;;;;;30.90;14.27;;;;;;;;;;5052218;28;20462;-69
2023/10/02 08:29:44;;;;;;;33.80;13.65;;;;;;;;;;5051978;28;20029;-69
2023/10/02 08:32:10;;;;;;;37.25;12.90;;;;;;;;;;5056492;28;20367;-69
2023/10/02 08:34:36;;;;;;;34.65;15.23;;;;;;;;;;5055208;28;20427;-69
2023/10/02 08:37:12;;;;;;;37.55;13.80;;;;;;;;;;5056297;28;20033;-69
2023/10/02 08:39:41;;;;;;;36.95;13.55;;;;;;;;;;5056154;28;20025;-69
2023/10/02 08:42:10;;;;;;;32.50;14.20;;;;;;;;;;5056029;28;20021;-69
2023/10/02 08:44:42;;;;;;;32.83;12.48;;;;;;;;;;5055300;28;20491;-69
2023/10/02 08:47:11;;;;;;;33.63;13.48;;;;;;;;;;5056208;28;20032;-69
2023/10/02 08:49:40;;;;;;;35.80;13.23;;;;;;;;;;5055921;28;20115;-69
2023/10/02 08:52:11;;;;;;;38.95;14.98;;;;;;;;;;5055388;28;20436;-69
2023/10/02 08:54:39;;;;;;;40.13;13.63;;;;;;;;;;5055349;28;20021;-69
2023/10/02 08:57:06;;;;;;;34.70;13.32;;;;;;;;;;5056109;28;20033;-69
2023/10/02 08:59:38;;;;;;;33.80;14.55;;;;;;;;;;5055671;28;20504;-69
2023/10/02 09:02:16;;;;;;;38.05;16.55;;;;;;;;;;5054447;28;20104;-69
2023/10/02 09:04:55;;;;;;;41.63;13.27;;;;;;;;;;5052855;28;20398;-69
2023/10/02 09:10:24;;;;;;;34.10;12.95;;;;;;;;;;5055575;28;20086;-69
2023/10/02 09:13:09;;;;;;;41.72;13.90;;;;;;;;;;5054614;28;20083;-69
2023/10/02 09:15:35;;;;;;;36.10;12.52;;;;;;;;;;5055331;28;20398;-69
2023/10/02 09:18:17;;;;;;;37.97;13.35;;;;;;;;;;5055524;28;20025;-69
2023/10/02 09:21:12;;;;;;;40.88;14.95;;;;;;;;;;5055559;28;20055;-69
2023/10/02 09:23:49;;;;;;;33.85;13.82;;;;;;;;;;5055462;28;20035;-69
2023/10/02 09:26:21;;;;;;;;;;;;;;;;;;5054630;28;20032;-69
2023/10/02 09:28:58;;;;;;;34.03;13.15;;;;;;;;;;5054916;28;19920;-69
2023/10/02 09:31:28;;;;;;;37.63;14.00;;;;;;;;;;5055055;28;20132;-69
2023/10/02 09:33:55;;;;;;;41.30;14.00;;;;;;;;;;5055171;28;20025;-69
2023/10/02 09:36:34;;;;;;;37.15;13.63;;;;;;;;;;5054369;28;20028;-69
2023/10/02 09:39:31;;;;;;;34.97;13.60;;;;;;;;;;5053897;28;20032;-69
2023/10/02 09:41:47;;;;;;;35.22;13.35;;;;;;;;;;5052827;28;20033;-69
2023/10/02 09:44:21;;;;;;;29.63;11.45;;;;;;;;;;5052705;28;20148;-69
2023/10/02 09:46:46;;;;;;;;;;;;;;;;;;5054156;28;20025;-69
2023/10/02 09:49:21;;;;;;;37.45;12.55;;;;;;;;;;5054538;28;19916;-69
2023/10/02 09:52:09;;;;;;;33.33;12.88;;;;;;;;;;5049144;28;20027;-69
2023/10/02 09:54:40;;;;;;;29.25;12.30;;;;;;;;;;5033828;28;20458;-69
2023/10/02 09:57:12;;;;;;;37.65;14.05;;;;;;;;;;5047724;28;20086;-69
2023/10/02 09:59:47;;;;;;;37.65;13.48;;;;;;;;;;5053630;28;20098;-69
2023/10/02 10:10:57;;;;;;;40.95;15.25;;;;;;;;;;5054716;28;20035;-69
2023/10/02 10:13:32;;;;;;;41.00;15.10;;;;;;;;;;5054719;28;20056;-69
2023/10/02 10:16:30;;;;;;;33.58;15.43;;;;;;;;;;5053530;28;20032;-69
2023/10/02 10:21:57;;;;;;;;;;;;;;;;;;5054505;28;20135;-69
2023/10/02 10:24:55;;;;;;;47.92;17.10;;;;;;;;;;5054111;28;19909;-69
2023/10/02 10:27:38;;;;;;;43.58;16.48;;;;;;;;;;5053916;28;20471;-69
2023/10/02 10:30:19;;;;;;;40.47;15.90;;;;;;;;;;5054004;28;20453;-69
2023/10/02 10:32:44;;;;;;;38.88;17.10;;;;;;;;;;5053653;28;20316;-69
2023/10/02 10:35:29;;;;;;;41.40;16.58;;;;;;;;;;5053127;28;20028;-69
2023/10/02 10:37:56;;;;;;;40.28;18.42;;;;;;;;;;5053643;28;20033;-69
2023/10/02 10:40:44;;;;;;;41.33;16.70;;;;;;;;;;5035179;28;20108;-69
2023/10/02 10:43:12;;;;;;;41.10;18.98;;;;;;;;;;5053208;28;20032;-69
2023/10/02 10:45:39;;;;;;;41.85;17.48;;;;;;;;;;5053459;28;20482;-69
2023/10/02 10:48:18;;;;;;;49.17;19.05;;;;;;;;;;5053556;28;20086;-69
2023/10/02 10:50:56;;;;;;;46.38;18.55;;;;;;;;;;5053621;28;20021;-69
2023/10/02 10:53:28;;;;;;;46.17;18.70;;;;;;;;;;5052567;28;20100;-69
2023/10/02 10:55:59;;;;;;;41.65;16.67;;;;;;;;;;5053697;28;20108;-69
2023/10/02 10:58:33;;;;;;;40.10;17.33;;;;;;;;;;5052898;28;20017;-69
2023/10/02 11:01:05;;;;;;;42.80;19.13;;;;;;;;;;5053567;28;20024;-69
2023/10/02 11:03:30;;;;;;;40.78;17.17;;;;;;;;;;5053201;28;20027;-69
2023/10/02 11:06:02;;;;;;;44.92;16.77;;;;;;;;;;5053280;28;20398;-67
2023/10/02 11:08:28;;;;;;;49.00;18.05;;;;;;;;;;5052647;28;20136;-66
2023/10/02 11:11:10;;;;;;;48.88;19.67;;;;;;;;;;5053045;28;20100;-69
2023/10/02 11:13:58;;;;;;;46.50;18.23;;;;;;;;;;5053170;28;20581;-69
2023/10/02 11:16:30;;;;;;;48.72;19.65;;;;;;;;;;5053395;28;20339;-69
2023/10/02 11:24:53;;;;;;;56.10;19.67;;;;;;;;;;5051629;28;20032;-69
2023/10/02 11:27:19;;;;;;;53.17;20.60;;;;;;;;;;5052740;28;20025;-69
2023/10/02 11:30:00;;;;;;;49.08;21.30;;;;;;;;;;5052939;28;20025;-69
2023/10/02 11:32:58;;;;;;;50.45;20.77;;;;;;;;;;5051733;28;20055;-69
2023/10/02 11:35:28;;;;;;;50.80;20.38;;;;;;;;;;5051150;28;20482;-69
2023/10/02 11:37:54;;;;;;;57.60;21.08;;;;;;;;;;5051136;28;20033;-69
2023/10/02 11:40:24;;;;;;;53.08;21.65;;;;;;;;;;5051842;28;20552;-69
2023/10/02 11:42:49;;;;;;;51.03;20.27;;;;;;;;;;5051954;28;20359;-69
2023/10/02 11:45:15;;;;;;;57.35;21.67;;;;;;;;;;5051134;28;20027;-69
2023/10/02 11:47:40;;;;;;;51.35;21.27;;;;;;;;;;5052666;28;20031;-69
2023/10/02 11:50:06;;;;;;;50.90;17.25;;;;;;;;;;5052324;28;20390;-69
2023/10/02 11:52:32;;;;;;;53.20;21.27;;;;;;;;;;5052642;28;20017;-69
2023/10/02 11:54:57;;;;;;;52.80;20.23;;;;;;;;;;5052110;28;20039;-69
2023/10/02 11:57:22;;;;;;;65.38;20.60;;;;;;;;;;5052582;28;20499;-69
2023/10/02 11:59:47;;;;;;;54.08;19.35;;;;;;;;;;5052355;28;20029;-69
2023/10/02 12:02:17;;;;;;;60.38;20.30;;;;;;;;;;5052455;28;20029;-69
2023/10/02 12:04:44;;;;;;;60.35;21.73;;;;;;;;;;5052285;28;20053;-69
2023/10/02 12:07:15;;;;;;;55.45;19.30;;;;;;;;;;5051922;28;20383;-69
2023/10/02 12:09:41;;;;;;;52.17;20.75;;;;;;;;;;5052478;28;20024;-69
2023/10/02 12:12:06;;;;;;;58.55;21.38;;;;;;;;;;5052434;28;20087;-69
2023/10/02 12:14:34;;;;;;;50.42;20.13;;;;;;;;;;5052104;28;20504;-69
2023/10/02 12:16:59;;;;;;;54.47;20.15;;;;;;;;;;5051926;28;20032;-69
2023/10/02 12:19:36;;;;;;;53.17;18.27;;;;;;;;;;5050673;28;20033;-69
2023/10/02 12:22:06;;;;;;;57.00;23.08;;;;;;;;;;5052436;28;20021;-69
2023/10/02 12:24:35;;;;;;;62.22;21.23;;;;;;;;;;5052327;28;20099;-69
2023/10/02 12:27:01;;;;;;;57.58;21.33;;;;;;;;;;5050636;28;20032;-69
2023/10/02 12:29:26;;;;;;;61.80;23.58;;;;;;;;;;5051915;28;20021;-69
2023/10/02 12:31:53;;;;;;;59.20;20.85;;;;;;;;;;5052015;28;20017;-69
2023/10/02 12:34:18;;;;;;;59.83;21.02;;;;;;;;;;5051503;28;20032;-69
2023/10/02 12:36:44;;;;;;;66.22;21.02;;;;;;;;;;5051995;28;20516;-69
2023/10/02 12:39:12;;;;;;;60.42;21.27;;;;;;;;;;5052014;28;20029;-69
2023/10/02 12:41:38;;;;;;;56.20;21.27;;;;;;;;;;5052326;28;20111;-69
2023/10/02 12:44:04;;;;;;;60.60;24.23;;;;;;;;;;5051392;28;20052;-69
2023/10/02 12:46:29;;;;;;;60.13;22.38;;;;;;;;;;5052200;28;20078;-69
2023/10/02 12:48:57;;;;;;;62.25;23.00;;;;;;;;;;5067402;28;20052;-69
2023/10/02 12:51:24;;;;;;;67.97;26.00;;;;;;;;;;5051518;28;20017;-69
2023/10/02 12:53:50;;;;;;;58.90;20.88;;;;;;;;;;5050736;28;20033;-69
2023/10/02 12:56:24;;;;;;;56.22;18.98;;;;;;;;;;5051996;28;20096;-69
2023/10/02 12:58:50;;;;;;;61.15;20.08;;;;;;;;;;5050735;28;20410;-69
2023/10/02 13:01:24;;;;;;;60.83;20.63;;;;;;;;;;5051819;28;20025;-69
2023/10/02 13:03:49;;;;;;;67.30;21.48;;;;;;;;;;5051319;28;20021;-69
2023/10/02 13:06:15;;;;;;;69.22;20.10;;;;;;;;;;5051929;28;20117;-70
2023/10/02 13:08:44;;;;;;;57.20;19.70;;;;;;;;;;5051787;28;20060;-69
2023/10/02 13:11:12;;;;;;;58.30;20.00;;;;;;;;;;5051591;28;20510;-69
2023/10/02 13:13:44;;;;;;;56.63;17.58;;;;;;;;;;5051748;28;20078;-69
2023/10/02 13:16:11;;;;;;;51.35;18.77;;;;;;;;;;5050650;28;20163;-69
2023/10/02 13:18:37;;;;;;;49.05;18.02;;;;;;;;;;5042936;28;20029;-69
2023/10/02 13:21:06;;;;;;;51.70;18.40;;;;;;;;;;5035170;28;20031;-69
2023/10/02 13:23:31;;;;;;;44.58;15.80;;;;;;;;;;5053864;28;20024;-69
2023/10/02 13:25:57;;;;;;;46.85;14.90;;;;;;;;;;5055356;28;20398;-69
2023/10/02 13:28:22;;;;;;;43.80;17.17;;;;;;;;;;5055206;28;20482;-69
2023/10/02 13:30:47;;;;;;;45.83;15.38;;;;;;;;;;5054775;28;20571;-69
2023/10/02 13:33:13;;;;;;;39.63;14.93;;;;;;;;;;5053448;28;20021;-69
2023/10/02 13:35:39;;;;;;;41.42;16.70;;;;;;;;;;5055148;28;20115;-69
2023/10/02 13:38:06;;;;;;;45.53;15.93;;;;;;;;;;5054828;28;20086;-69
2023/10/02 13:40:32;;;;;;;44.65;18.55;;;;;;;;;;5054332;28;20025;-69
2023/10/02 13:42:58;;;;;;;45.75;15.93;;;;;;;;;;5054860;28;20028;-69
2023/10/02 13:45:24;;;;;;;38.80;15.68;;;;;;;;;;5053407;28;20033;-69
2023/10/02 13:47:52;;;;;;;46.47;16.45;;;;;;;;;;5054571;28;20027;-69
2023/10/02 13:50:17;;;;;;;44.22;16.90;;;;;;;;;;5054553;28;20111;-69
2023/10/02 13:52:43;;;;;;;52.17;18.77;;;;;;;;;;5054383;28;20128;-69
2023/10/02 13:55:22;;;;;;;47.47;16.73;;;;;;;;;;5054485;28;20025;-69
2023/10/02 13:57:52;;;;;;;53.05;17.45;;;;;;;;;;5053361;28;20388;-69
2023/10/02 14:00:19;;;;;;;45.17;17.92;;;;;;;;;;5054149;28;20029;-69
2023/10/02 14:02:45;;;;;;;41.70;16.45;;;;;;;;;;5054162;28;20028;-66
2023/10/02 14:05:14;;;;;;;38.63;15.32;;;;;;;;;;5054493;28;20031;-69
2023/10/02 14:07:40;;;;;;;40.58;15.20;;;;;;;;;;5054282;28;20087;-69
2023/10/02 14:10:10;;;;;;;41.15;15.10;;;;;;;;;;5054024;22;20496;-68
2023/10/02 14:12:36;;;;;;;39.30;16.25;;;;;;;;;;5013758;28;20022;-68
2023/10/02 14:15:03;;;;;;;40.38;16.20;;;;;;;;;;5013628;28;20026;-68
2023/10/02 14:17:33;;;;;;;39.45;15.32;;;;;;;;;;5034192;28;20028;-68
2023/10/02 14:19:59;;;;;;;42.40;14.98;;;;;;;;;;5034793;28;20544;-68
2023/10/02 14:22:25;;;;;;;34.63;13.98;;;;;;;;;;5034807;28;20029;-68
2023/10/02 14:24:50;;;;;;;44.88;14.00;;;;;;;;;;5033639;28;20021;-68
2023/10/02 14:27:15;;;;;;;37.97;13.80;;;;;;;;;;5034060;28;20029;-68
2023/10/02 14:29:41;;;;;;;37.45;13.30;;;;;;;;;;5027641;28;20030;-68
2023/10/02 14:32:07;;;;;;;33.72;12.65;;;;;;;;;;5033224;28;20406;-67
2023/10/02 14:34:33;;;;;;;40.28;14.70;;;;;;;;;;5034928;28;20021;-68
2023/10/02 14:36:59;;;;;;;33.58;14.30;;;;;;;;;;5000849;28;20038;-68
2023/10/02 14:39:30;;;;;;;37.78;14.00;;;;;;;;;;5020450;28;20032;-67
2023/10/02 14:41:56;;;;;;;33.33;13.48;;;;;;;;;;5034617;28;20026;-68
2023/10/02 14:44:21;;;;;;;32.25;14.25;;;;;;;;;;5033655;28;20033;-68
2023/10/02 14:46:46;;;;;;;30.75;12.50;;;;;;;;;;5033313;28;20037;-68
2023/10/02 14:49:11;;;;;;;38.35;12.43;;;;;;;;;;5034070;28;20036;-68
2023/10/02 14:51:37;;;;;;;38.53;13.32;;;;;;;;;;5033077;28;20160;-68
2023/10/02 14:54:02;;;;;;;26.52;13.00;;;;;;;;;;5033235;28;20025;-68
2023/10/02 14:56:27;;;;;;;40.35;14.02;;;;;;;;;;5033894;28;20493;-68
2023/10/02 14:58:53;;;;;;;34.78;12.88;;;;;;;;;;5034777;28;20017;-68
2023/10/02 15:01:19;;;;;;;36.50;12.82;;;;;;;;;;5034791;28;20033;-68
2023/10/02 15:03:45;;;;;;;32.67;12.27;;;;;;;;;;5027906;28;20025;-68
2023/10/02 15:06:10;;;;;;;35.13;12.30;;;;;;;;;;5014484;28;20037;-68
2023/10/02 15:08:36;;;;;;;37.72;14.05;;;;;;;;;;5013746;28;20056;-69
2023/10/02 15:11:03;;;;;;;32.80;12.07;;;;;;;;;;5020870;28;20033;-68
2023/10/02 15:13:29;;;;;;;22.85;10.85;;;;;;;;;;5032426;28;20382;-69
2023/10/02 15:15:54;;;;;;;35.75;13.02;;;;;;;;;;5033738;28;20028;-68
2023/10/02 15:18:20;;;;;;;30.58;12.32;;;;;;;;;;5033656;28;20045;-68
2023/10/02 15:20:46;;;;;;;52.85;18.80;;;;;;;;;;5032811;28;20021;-68
2023/10/02 15:23:11;;;;;;;46.85;16.25;;;;;;;;;;5030863;28;20104;-69